sensor_id;sensor_type;location;lat;lon;timestamp;pressure;altitude;pressure_sealevel;temperature
15680;BMP180;15488;48.114;11.532;2023-07-09T00:00:18;95845.00;;;28.00
15680;BMP180;15488;48.114;11.532;2023-07-09T00:02:45;95839.00;;;28.00
15680;BMP180;15488;48.114;11.532;2023-07-09T00:05:15;95835.00;;;28.00
15680;BMP180;15488;48.114;11.532;2023-07-09T00:07:44;95837.00;;;28.00
15680;BMP180;15488;48.114;11.532;2023-07-09T00:10:18;95833.00;;;28.00
15680;BMP180;15488;48.114;11.532;2023-07-09T00:12:47;95845.00;;;27.90
15680;BMP180;15488;48.114;11.532;2023-07-09T00:15:15;95836.00;;;27.90
15680;BMP180;15488;48.114;11.532;2023-07-09T00:17:44;95839.00;;;27.90
15680;BMP180;15488;48.114;11.532;2023-07-09T00:20:14;95841.00;;;27.90
15680;BMP180;15488;48.114;11.532;2023-07-09T00:22:42;95844.00;;;27.90
15680;BMP180;15488;48.114;11.532;2023-07-09T00:25:19;95843.00;;;27.90
15680;BMP180;15488;48.114;11.532;2023-07-09T00:27:47;95844.00;;;27.80
15680;BMP180;15488;48.114;11.532;2023-07-09T00:30:21;95845.00;;;27.80
15680;BMP180;15488;48.114;11.532;2023-07-09T00:32:49;95853.00;;;27.80
15680;BMP180;15488;48.114;11.532;2023-07-09T00:35:18;95851.00;;;27.80
15680;BMP180;15488;48.114;11.532;2023-07-09T00:37:46;95851.00;;;27.70
15680;BMP180;15488;48.114;11.532;2023-07-09T00:40:20;95857.00;;;27.70
15680;BMP180;15488;48.114;11.532;2023-07-09T00:42:49;95855.00;;;27.70
15680;BMP180;15488;48.114;11.532;2023-07-09T00:45:20;95857.00;;;27.60
15680;BMP180;15488;48.114;11.532;2023-07-09T00:47:55;95861.00;;;27.60
15680;BMP180;15488;48.114;11.532;2023-07-09T00:50:33;95857.00;;;27.60
15680;BMP180;15488;48.114;11.532;2023-07-09T00:53:04;95862.00;;;27.50
15680;BMP180;15488;48.114;11.532;2023-07-09T00:55:38;95864.00;;;27.50
15680;BMP180;15488;48.114;11.532;2023-07-09T00:58:08;95858.00;;;27.50
15680;BMP180;15488;48.114;11.532;2023-07-09T01:00:41;95863.00;;;27.50
15680;BMP180;15488;48.114;11.532;2023-07-09T01:03:21;95858.00;;;27.50
15680;BMP180;15488;48.114;11.532;2023-07-09T01:05:57;95857.00;;;27.40
15680;BMP180;15488;48.114;11.532;2023-07-09T01:08:25;95855.00;;;27.40
15680;BMP180;15488;48.114;11.532;2023-07-09T01:10:54;95852.00;;;27.40
15680;BMP180;15488;48.114;11.532;2023-07-09T01:13:22;95863.00;;;27.40
15680;BMP180;15488;48.114;11.532;2023-07-09T01:15:52;95865.00;;;27.40
15680;BMP180;15488;48.114;11.532;2023-07-09T01:18:20;95861.00;;;27.40
15680;BMP180;15488;48.114;11.532;2023-07-09T01:20:50;95869.00;;;27.30
15680;BMP180;15488;48.114;11.532;2023-07-09T01:23:20;95870.00;;;27.30
15680;BMP180;15488;48.114;11.532;2023-07-09T01:25:51;95872.00;;;27.30
15680;BMP180;15488;48.114;11.532;2023-07-09T01:28:20;95865.00;;;27.30
15680;BMP180;15488;48.114;11.532;2023-07-09T01:30:48;95870.00;;;27.30
15680;BMP180;15488;48.114;11.532;2023-07-09T01:33:21;95867.00;;;27.20
15680;BMP180;15488;48.114;11.532;2023-07-09T01:35:49;95869.00;;;27.20
15680;BMP180;15488;48.114;11.532;2023-07-09T01:38:20;95878.00;;;27.20
15680;BMP180;15488;48.114;11.532;2023-07-09T01:40:47;95872.00;;;27.20
15680;BMP180;15488;48.114;11.532;2023-07-09T01:43:15;95875.00;;;27.20
15680;BMP180;15488;48.114;11.532;2023-07-09T01:45:42;95876.00;;;27.20
15680;BMP180;15488;48.114;11.532;2023-07-09T01:48:10;95874.00;;;27.20
15680;BMP180;15488;48.114;11.532;2023-07-09T01:50:40;95872.00;;;27.20
15680;BMP180;15488;48.114;11.532;2023-07-09T01:53:08;95865.00;;;27.10
15680;BMP180;15488;48.114;11.532;2023-07-09T01:55:37;95874.00;;;27.10
15680;BMP180;15488;48.114;11.532;2023-07-09T01:58:04;95876.00;;;27.10
15680;BMP180;15488;48.114;11.532;2023-07-09T02:00:34;95874.00;;;27.10
15680;BMP180;15488;48.114;11.532;2023-07-09T02:03:02;95882.00;;;27.10
15680;BMP180;15488;48.114;11.532;2023-07-09T02:05:32;95881.00;;;27.10
15680;BMP180;15488;48.114;11.532;2023-07-09T02:07:59;95880.00;;;27.00
15680;BMP180;15488;48.114;11.532;2023-07-09T02:10:27;95881.00;;;27.00
15680;BMP180;15488;48.114;11.532;2023-07-09T02:12:56;95878.00;;;27.00
15680;BMP180;15488;48.114;11.532;2023-07-09T02:15:23;95875.00;;;26.90
15680;BMP180;15488;48.114;11.532;2023-07-09T02:17:51;95872.00;;;26.80
15680;BMP180;15488;48.114;11.532;2023-07-09T02:20:18;95873.00;;;26.80
15680;BMP180;15488;48.114;11.532;2023-07-09T02:22:47;95870.00;;;26.70
15680;BMP180;15488;48.114;11.532;2023-07-09T02:25:15;95872.00;;;26.70
15680;BMP180;15488;48.114;11.532;2023-07-09T02:27:42;95874.00;;;26.60
15680;BMP180;15488;48.114;11.532;2023-07-09T02:30:11;95870.00;;;26.70
15680;BMP180;15488;48.114;11.532;2023-07-09T02:32:39;95875.00;;;26.70
15680;BMP180;15488;48.114;11.532;2023-07-09T02:35:08;95875.00;;;26.60
15680;BMP180;15488;48.114;11.532;2023-07-09T02:37:35;95877.00;;;26.60
15680;BMP180;15488;48.114;11.532;2023-07-09T02:40:03;95877.00;;;26.60
15680;BMP180;15488;48.114;11.532;2023-07-09T02:42:31;95874.00;;;26.50
15680;BMP180;15488;48.114;11.532;2023-07-09T02:44:59;95878.00;;;26.50
15680;BMP180;15488;48.114;11.532;2023-07-09T02:47:27;95877.00;;;26.50
15680;BMP180;15488;48.114;11.532;2023-07-09T02:49:55;95873.00;;;26.40
15680;BMP180;15488;48.114;11.532;2023-07-09T02:52:22;95879.00;;;26.40
15680;BMP180;15488;48.114;11.532;2023-07-09T02:54:50;95879.00;;;26.40
15680;BMP180;15488;48.114;11.532;2023-07-09T02:57:17;95876.00;;;26.40
15680;BMP180;15488;48.114;11.532;2023-07-09T02:59:45;95882.00;;;26.30
15680;BMP180;15488;48.114;11.532;2023-07-09T03:02:12;95877.00;;;26.30
15680;BMP180;15488;48.114;11.532;2023-07-09T03:04:41;95876.00;;;26.30
15680;BMP180;15488;48.114;11.532;2023-07-09T03:07:08;95883.00;;;26.30
15680;BMP180;15488;48.114;11.532;2023-07-09T03:09:36;95889.00;;;26.30
15680;BMP180;15488;48.114;11.532;2023-07-09T03:12:04;95894.00;;;26.30
15680;BMP180;15488;48.114;11.532;2023-07-09T03:14:31;95890.00;;;26.30
15680;BMP180;15488;48.114;11.532;2023-07-09T03:16:59;95892.00;;;26.30
15680;BMP180;15488;48.114;11.532;2023-07-09T03:19:26;95892.00;;;26.40
15680;BMP180;15488;48.114;11.532;2023-07-09T03:21:55;95892.00;;;26.30
15680;BMP180;15488;48.114;11.532;2023-07-09T03:24:23;95893.00;;;26.30
15680;BMP180;15488;48.114;11.532;2023-07-09T03:26:50;95896.00;;;26.40
15680;BMP180;15488;48.114;11.532;2023-07-09T03:29:17;95896.00;;;26.30
15680;BMP180;15488;48.114;11.532;2023-07-09T03:31:45;95895.00;;;26.30
15680;BMP180;15488;48.114;11.532;2023-07-09T03:34:12;95892.00;;;26.30
15680;BMP180;15488;48.114;11.532;2023-07-09T03:36:41;95897.00;;;26.30
15680;BMP180;15488;48.114;11.532;2023-07-09T03:39:10;95900.00;;;26.30
15680;BMP180;15488;48.114;11.532;2023-07-09T03:41:38;95903.00;;;26.30
15680;BMP180;15488;48.114;11.532;2023-07-09T03:44:05;95907.00;;;26.30
15680;BMP180;15488;48.114;11.532;2023-07-09T03:46:33;95904.00;;;26.30
15680;BMP180;15488;48.114;11.532;2023-07-09T03:49:00;95901.00;;;26.20
15680;BMP180;15488;48.114;11.532;2023-07-09T03:51:28;95903.00;;;26.30
15680;BMP180;15488;48.114;11.532;2023-07-09T03:53:55;95906.00;;;26.30
15680;BMP180;15488;48.114;11.532;2023-07-09T03:56:24;95905.00;;;26.30
15680;BMP180;15488;48.114;11.532;2023-07-09T03:58:52;95907.00;;;26.30
15680;BMP180;15488;48.114;11.532;2023-07-09T04:01:19;95907.00;;;26.30
15680;BMP180;15488;48.114;11.532;2023-07-09T04:03:48;95914.00;;;26.30
15680;BMP180;15488;48.114;11.532;2023-07-09T04:06:15;95914.00;;;26.30
15680;BMP180;15488;48.114;11.532;2023-07-09T04:08:42;95912.00;;;26.30
15680;BMP180;15488;48.114;11.532;2023-07-09T04:11:10;95910.00;;;26.30
15680;BMP180;15488;48.114;11.532;2023-07-09T04:13:39;95909.00;;;26.20
15680;BMP180;15488;48.114;11.532;2023-07-09T04:16:06;95913.00;;;26.30
15680;BMP180;15488;48.114;11.532;2023-07-09T04:18:34;95909.00;;;26.30
15680;BMP180;15488;48.114;11.532;2023-07-09T04:21:02;95909.00;;;26.30
15680;BMP180;15488;48.114;11.532;2023-07-09T04:23:30;95914.00;;;26.30
15680;BMP180;15488;48.114;11.532;2023-07-09T04:25:57;95916.00;;;26.30
15680;BMP180;15488;48.114;11.532;2023-07-09T04:28:29;95914.00;;;26.30
15680;BMP180;15488;48.114;11.532;2023-07-09T04:30:58;95916.00;;;26.40
15680;BMP180;15488;48.114;11.532;2023-07-09T04:33:26;95920.00;;;26.30
15680;BMP180;15488;48.114;11.532;2023-07-09T04:35:53;95921.00;;;26.30
15680;BMP180;15488;48.114;11.532;2023-07-09T04:38:21;95923.00;;;26.40
15680;BMP180;15488;48.114;11.532;2023-07-09T04:40:48;95920.00;;;26.30
15680;BMP180;15488;48.114;11.532;2023-07-09T04:43:16;95920.00;;;26.30
15680;BMP180;15488;48.114;11.532;2023-07-09T04:45:43;95932.00;;;26.40
15680;BMP180;15488;48.114;11.532;2023-07-09T04:48:12;95929.00;;;26.40
15680;BMP180;15488;48.114;11.532;2023-07-09T04:50:40;95931.00;;;26.40
15680;BMP180;15488;48.114;11.532;2023-07-09T04:53:07;95928.00;;;26.40
15680;BMP180;15488;48.114;11.532;2023-07-09T04:55:35;95929.00;;;26.40
15680;BMP180;15488;48.114;11.532;2023-07-09T04:58:02;95927.00;;;26.50
15680;BMP180;15488;48.114;11.532;2023-07-09T05:00:29;95931.00;;;26.50
15680;BMP180;15488;48.114;11.532;2023-07-09T05:02:57;95929.00;;;26.50
15680;BMP180;15488;48.114;11.532;2023-07-09T05:05:26;95924.00;;;26.50
15680;BMP180;15488;48.114;11.532;2023-07-09T05:07:53;95927.00;;;26.50
15680;BMP180;15488;48.114;11.532;2023-07-09T05:10:20;95917.00;;;26.60
15680;BMP180;15488;48.114;11.532;2023-07-09T05:12:49;95927.00;;;26.60
15680;BMP180;15488;48.114;11.532;2023-07-09T05:15:17;95929.00;;;26.60
15680;BMP180;15488;48.114;11.532;2023-07-09T05:17:45;95932.00;;;26.70
15680;BMP180;15488;48.114;11.532;2023-07-09T05:20:15;95930.00;;;26.70
15680;BMP180;15488;48.114;11.532;2023-07-09T05:22:43;95928.00;;;26.80
15680;BMP180;15488;48.114;11.532;2023-07-09T05:25:11;95924.00;;;26.90
15680;BMP180;15488;48.114;11.532;2023-07-09T05:27:38;95933.00;;;26.90
15680;BMP180;15488;48.114;11.532;2023-07-09T05:30:07;95942.00;;;26.90
15680;BMP180;15488;48.114;11.532;2023-07-09T05:32:35;95934.00;;;27.00
15680;BMP180;15488;48.114;11.532;2023-07-09T05:35:04;95940.00;;;27.00
15680;BMP180;15488;48.114;11.532;2023-07-09T05:37:31;95935.00;;;27.10
15680;BMP180;15488;48.114;11.532;2023-07-09T05:40:00;95936.00;;;27.10
15680;BMP180;15488;48.114;11.532;2023-07-09T05:42:28;95942.00;;;27.20
15680;BMP180;15488;48.114;11.532;2023-07-09T05:44:55;95945.00;;;27.20
15680;BMP180;15488;48.114;11.532;2023-07-09T05:47:23;95955.00;;;27.30
15680;BMP180;15488;48.114;11.532;2023-07-09T05:49:51;95952.00;;;27.30
15680;BMP180;15488;48.114;11.532;2023-07-09T05:52:18;95953.00;;;27.40
15680;BMP180;15488;48.114;11.532;2023-07-09T05:54:48;95958.00;;;27.50
15680;BMP180;15488;48.114;11.532;2023-07-09T05:57:17;95957.00;;;27.50
15680;BMP180;15488;48.114;11.532;2023-07-09T05:59:44;95960.00;;;27.60
15680;BMP180;15488;48.114;11.532;2023-07-09T06:02:13;95958.00;;;27.60
15680;BMP180;15488;48.114;11.532;2023-07-09T06:04:41;95959.00;;;27.60
15680;BMP180;15488;48.114;11.532;2023-07-09T06:07:09;95960.00;;;27.70
15680;BMP180;15488;48.114;11.532;2023-07-09T06:09:36;95954.00;;;27.80
15680;BMP180;15488;48.114;11.532;2023-07-09T06:12:05;95963.00;;;27.90
15680;BMP180;15488;48.114;11.532;2023-07-09T06:14:34;95958.00;;;27.90
15680;BMP180;15488;48.114;11.532;2023-07-09T06:17:02;95960.00;;;28.00
15680;BMP180;15488;48.114;11.532;2023-07-09T06:19:29;95970.00;;;28.10
15680;BMP180;15488;48.114;11.532;2023-07-09T06:21:57;95958.00;;;28.20
15680;BMP180;15488;48.114;11.532;2023-07-09T06:24:24;95967.00;;;28.20
15680;BMP180;15488;48.114;11.532;2023-07-09T06:26:52;95965.00;;;28.40
15680;BMP180;15488;48.114;11.532;2023-07-09T06:29:19;95967.00;;;28.40
15680;BMP180;15488;48.114;11.532;2023-07-09T06:31:48;95965.00;;;28.50
15680;BMP180;15488;48.114;11.532;2023-07-09T06:34:15;95975.00;;;28.50
15680;BMP180;15488;48.114;11.532;2023-07-09T06:36:43;95971.00;;;28.60
15680;BMP180;15488;48.114;11.532;2023-07-09T06:39:10;95975.00;;;28.60
15680;BMP180;15488;48.114;11.532;2023-07-09T06:41:38;95972.00;;;28.70
15680;BMP180;15488;48.114;11.532;2023-07-09T06:44:06;95966.00;;;28.80
15680;BMP180;15488;48.114;11.532;2023-07-09T06:46:34;95958.00;;;28.90
15680;BMP180;15488;48.114;11.532;2023-07-09T06:49:03;95964.00;;;29.00
15680;BMP180;15488;48.114;11.532;2023-07-09T06:51:31;95965.00;;;29.10
15680;BMP180;15488;48.114;11.532;2023-07-09T06:53:59;95963.00;;;29.10
15680;BMP180;15488;48.114;11.532;2023-07-09T06:56:26;95959.00;;;29.20
15680;BMP180;15488;48.114;11.532;2023-07-09T06:58:54;95956.00;;;29.30
15680;BMP180;15488;48.114;11.532;2023-07-09T07:01:22;95960.00;;;29.40
15680;BMP180;15488;48.114;11.532;2023-07-09T07:03:49;95961.00;;;29.40
15680;BMP180;15488;48.114;11.532;2023-07-09T07:06:18;95922.00;;;29.50
15680;BMP180;15488;48.114;11.532;2023-07-09T07:08:46;95964.00;;;29.50
15680;BMP180;15488;48.114;11.532;2023-07-09T07:11:13;95973.00;;;29.60
15680;BMP180;15488;48.114;11.532;2023-07-09T07:13:43;95964.00;;;29.70
15680;BMP180;15488;48.114;11.532;2023-07-09T07:16:11;95959.00;;;29.80
15680;BMP180;15488;48.114;11.532;2023-07-09T07:18:39;95958.00;;;29.80
15680;BMP180;15488;48.114;11.532;2023-07-09T07:21:07;95964.00;;;29.80
15680;BMP180;15488;48.114;11.532;2023-07-09T07:23:35;95964.00;;;29.90
15680;BMP180;15488;48.114;11.532;2023-07-09T07:26:03;95960.00;;;30.00
15680;BMP180;15488;48.114;11.532;2023-07-09T07:28:31;95960.00;;;30.10
15680;BMP180;15488;48.114;11.532;2023-07-09T07:30:59;95959.00;;;30.10
15680;BMP180;15488;48.114;11.532;2023-07-09T07:33:27;95953.00;;;30.20
15680;BMP180;15488;48.114;11.532;2023-07-09T07:35:54;95959.00;;;30.30
15680;BMP180;15488;48.114;11.532;2023-07-09T07:38:21;95956.00;;;30.40
15680;BMP180;15488;48.114;11.532;2023-07-09T07:40:51;95954.00;;;30.40
15680;BMP180;15488;48.114;11.532;2023-07-09T07:43:18;95954.00;;;30.50
15680;BMP180;15488;48.114;11.532;2023-07-09T07:45:47;95950.00;;;30.50
15680;BMP180;15488;48.114;11.532;2023-07-09T07:48:14;95957.00;;;30.60
15680;BMP180;15488;48.114;11.532;2023-07-09T07:50:42;95952.00;;;30.70
15680;BMP180;15488;48.114;11.532;2023-07-09T07:53:12;95951.00;;;30.80
15680;BMP180;15488;48.114;11.532;2023-07-09T07:55:40;95944.00;;;30.80
15680;BMP180;15488;48.114;11.532;2023-07-09T07:58:10;95949.00;;;30.90
15680;BMP180;15488;48.114;11.532;2023-07-09T08:00:38;95951.00;;;31.00
15680;BMP180;15488;48.114;11.532;2023-07-09T08:03:06;95949.00;;;31.00
15680;BMP180;15488;48.114;11.532;2023-07-09T08:05:33;95948.00;;;31.10
15680;BMP180;15488;48.114;11.532;2023-07-09T08:08:01;95948.00;;;31.10
15680;BMP180;15488;48.114;11.532;2023-07-09T08:10:28;95945.00;;;31.20
15680;BMP180;15488;48.114;11.532;2023-07-09T08:12:56;95944.00;;;31.20
15680;BMP180;15488;48.114;11.532;2023-07-09T08:15:25;95942.00;;;31.30
15680;BMP180;15488;48.114;11.532;2023-07-09T08:17:53;95945.00;;;31.40
15680;BMP180;15488;48.114;11.532;2023-07-09T08:20:20;95939.00;;;31.50
15680;BMP180;15488;48.114;11.532;2023-07-09T08:22:48;95938.00;;;31.50
15680;BMP180;15488;48.114;11.532;2023-07-09T08:25:15;95939.00;;;31.60
15680;BMP180;15488;48.114;11.532;2023-07-09T08:27:43;95941.00;;;31.60
15680;BMP180;15488;48.114;11.532;2023-07-09T08:30:11;95939.00;;;31.70
15680;BMP180;15488;48.114;11.532;2023-07-09T08:32:40;95931.00;;;31.70
15680;BMP180;15488;48.114;11.532;2023-07-09T08:35:08;95935.00;;;31.70
15680;BMP180;15488;48.114;11.532;2023-07-09T08:37:38;95932.00;;;31.80
15680;BMP180;15488;48.114;11.532;2023-07-09T08:40:08;95927.00;;;31.80
15680;BMP180;15488;48.114;11.532;2023-07-09T08:42:41;95929.00;;;31.90
15680;BMP180;15488;48.114;11.532;2023-07-09T08:45:20;95930.00;;;31.90
15680;BMP180;15488;48.114;11.532;2023-07-09T08:48:05;95924.00;;;32.10
15680;BMP180;15488;48.114;11.532;2023-07-09T08:50:37;95925.00;;;32.10
15680;BMP180;15488;48.114;11.532;2023-07-09T08:53:07;95931.00;;;32.20
15680;BMP180;15488;48.114;11.532;2023-07-09T08:55:40;95925.00;;;32.30
15680;BMP180;15488;48.114;11.532;2023-07-09T08:58:20;95926.00;;;32.30
15680;BMP180;15488;48.114;11.532;2023-07-09T09:00:54;95927.00;;;32.30
15680;BMP180;15488;48.114;11.532;2023-07-09T09:03:29;95920.00;;;32.40
15680;BMP180;15488;48.114;11.532;2023-07-09T09:06:00;95924.00;;;32.40
15680;BMP180;15488;48.114;11.532;2023-07-09T09:08:36;95925.00;;;32.50
15680;BMP180;15488;48.114;11.532;2023-07-09T09:11:14;95928.00;;;32.60
15680;BMP180;15488;48.114;11.532;2023-07-09T09:13:43;95934.00;;;32.60
15680;BMP180;15488;48.114;11.532;2023-07-09T09:16:19;95937.00;;;32.70
15680;BMP180;15488;48.114;11.532;2023-07-09T09:18:50;95935.00;;;32.80
15680;BMP180;15488;48.114;11.532;2023-07-09T09:21:24;95931.00;;;32.80
15680;BMP180;15488;48.114;11.532;2023-07-09T09:23:54;95936.00;;;32.90
15680;BMP180;15488;48.114;11.532;2023-07-09T09:26:28;95930.00;;;33.00
15680;BMP180;15488;48.114;11.532;2023-07-09T09:28:57;95928.00;;;33.10
15680;BMP180;15488;48.114;11.532;2023-07-09T09:31:27;95928.00;;;33.10
15680;BMP180;15488;48.114;11.532;2023-07-09T09:33:56;95921.00;;;33.20
15680;BMP180;15488;48.114;11.532;2023-07-09T09:36:25;95927.00;;;33.20
15680;BMP180;15488;48.114;11.532;2023-07-09T09:38:54;95930.00;;;33.30
15680;BMP180;15488;48.114;11.532;2023-07-09T09:41:23;95926.00;;;33.30
15680;BMP180;15488;48.114;11.532;2023-07-09T09:43:53;95923.00;;;33.40
15680;BMP180;15488;48.114;11.532;2023-07-09T09:46:24;95927.00;;;33.40
15680;BMP180;15488;48.114;11.532;2023-07-09T09:48:58;95930.00;;;33.50
15680;BMP180;15488;48.114;11.532;2023-07-09T09:51:27;95925.00;;;33.50
15680;BMP180;15488;48.114;11.532;2023-07-09T09:53:59;95931.00;;;33.60
15680;BMP180;15488;48.114;11.532;2023-07-09T09:56:29;95922.00;;;33.60
15680;BMP180;15488;48.114;11.532;2023-07-09T09:58:59;95932.00;;;33.70
15680;BMP180;15488;48.114;11.532;2023-07-09T10:01:29;95925.00;;;33.80
15680;BMP180;15488;48.114;11.532;2023-07-09T10:03:59;95931.00;;;33.90
15680;BMP180;15488;48.114;11.532;2023-07-09T10:06:35;95925.00;;;33.90
15680;BMP180;15488;48.114;11.532;2023-07-09T10:09:10;95923.00;;;33.90
15680;BMP180;15488;48.114;11.532;2023-07-09T10:11:46;95931.00;;;33.90
15680;BMP180;15488;48.114;11.532;2023-07-09T10:14:33;95927.00;;;34.00
15680;BMP180;15488;48.114;11.532;2023-07-09T10:17:09;95924.00;;;34.10
15680;BMP180;15488;48.114;11.532;2023-07-09T10:19:47;95930.00;;;34.10
15680;BMP180;15488;48.114;11.532;2023-07-09T10:22:24;95924.00;;;34.20
15680;BMP180;15488;48.114;11.532;2023-07-09T10:25:00;95931.00;;;34.30
15680;BMP180;15488;48.114;11.532;2023-07-09T10:27:35;95921.00;;;34.30
15680;BMP180;15488;48.114;11.532;2023-07-09T10:30:19;95925.00;;;34.40
15680;BMP180;15488;48.114;11.532;2023-07-09T10:33:01;95926.00;;;34.40
15680;BMP180;15488;48.114;11.532;2023-07-09T10:35:38;95935.00;;;34.50
15680;BMP180;15488;48.114;11.532;2023-07-09T10:38:20;95927.00;;;34.50
15680;BMP180;15488;48.114;11.532;2023-07-09T10:40:51;95920.00;;;34.60
15680;BMP180;15488;48.114;11.532;2023-07-09T10:43:31;95924.00;;;34.60
15680;BMP180;15488;48.114;11.532;2023-07-09T10:46:04;95922.00;;;34.70
15680;BMP180;15488;48.114;11.532;2023-07-09T10:48:35;95923.00;;;34.80
15680;BMP180;15488;48.114;11.532;2023-07-09T10:51:13;95923.00;;;34.80
15680;BMP180;15488;48.114;11.532;2023-07-09T10:53:45;95927.00;;;34.80
15680;BMP180;15488;48.114;11.532;2023-07-09T10:56:17;95922.00;;;34.90
15680;BMP180;15488;48.114;11.532;2023-07-09T10:58:50;95928.00;;;34.90
15680;BMP180;15488;48.114;11.532;2023-07-09T11:01:28;95887.00;;;35.00
15680;BMP180;15488;48.114;11.532;2023-07-09T11:04:01;95910.00;;;35.10
15680;BMP180;15488;48.114;11.532;2023-07-09T11:06:34;95914.00;;;35.10
15680;BMP180;15488;48.114;11.532;2023-07-09T11:09:07;95909.00;;;35.20
15680;BMP180;15488;48.114;11.532;2023-07-09T11:11:42;95907.00;;;35.30
15680;BMP180;15488;48.114;11.532;2023-07-09T11:14:27;95902.00;;;35.30
15680;BMP180;15488;48.114;11.532;2023-07-09T11:16:57;95907.00;;;35.40
15680;BMP180;15488;48.114;11.532;2023-07-09T11:19:27;95906.00;;;35.50
15680;BMP180;15488;48.114;11.532;2023-07-09T11:22:04;95904.00;;;35.50
15680;BMP180;15488;48.114;11.532;2023-07-09T11:24:44;95901.00;;;35.60
15680;BMP180;15488;48.114;11.532;2023-07-09T11:27:22;95907.00;;;35.60
15680;BMP180;15488;48.114;11.532;2023-07-09T11:29:58;95906.00;;;35.70
15680;BMP180;15488;48.114;11.532;2023-07-09T11:32:26;95900.00;;;35.70
15680;BMP180;15488;48.114;11.532;2023-07-09T11:35:05;95900.00;;;35.70
15680;BMP180;15488;48.114;11.532;2023-07-09T11:37:45;95904.00;;;35.80
15680;BMP180;15488;48.114;11.532;2023-07-09T11:40:14;95901.00;;;35.80
15680;BMP180;15488;48.114;11.532;2023-07-09T11:42:51;95902.00;;;35.80
15680;BMP180;15488;48.114;11.532;2023-07-09T11:45:22;95889.00;;;35.90
15680;BMP180;15488;48.114;11.532;2023-07-09T11:47:55;95890.00;;;36.00
15680;BMP180;15488;48.114;11.532;2023-07-09T11:50:29;95887.00;;;36.10
15680;BMP180;15488;48.114;11.532;2023-07-09T11:52:59;95880.00;;;36.10
15680;BMP180;15488;48.114;11.532;2023-07-09T11:55:31;95879.00;;;36.20
15680;BMP180;15488;48.114;11.532;2023-07-09T11:58:03;95877.00;;;36.30
15680;BMP180;15488;48.114;11.532;2023-07-09T12:00:38;95878.00;;;36.40
15680;BMP180;15488;48.114;11.532;2023-07-09T12:03:07;95874.00;;;36.40
15680;BMP180;15488;48.114;11.532;2023-07-09T12:05:38;95866.00;;;36.50
15680;BMP180;15488;48.114;11.532;2023-07-09T12:08:07;95875.00;;;36.60
15680;BMP180;15488;48.114;11.532;2023-07-09T12:10:35;95875.00;;;36.80
15680;BMP180;15488;48.114;11.532;2023-07-09T12:13:03;95861.00;;;36.90
15680;BMP180;15488;48.114;11.532;2023-07-09T12:15:31;95861.00;;;36.90
15680;BMP180;15488;48.114;11.532;2023-07-09T12:18:00;95861.00;;;37.00
15680;BMP180;15488;48.114;11.532;2023-07-09T12:20:31;95849.00;;;37.10
15680;BMP180;15488;48.114;11.532;2023-07-09T12:22:58;95851.00;;;37.30
15680;BMP180;15488;48.114;11.532;2023-07-09T12:25:29;95848.00;;;37.40
15680;BMP180;15488;48.114;11.532;2023-07-09T12:27:58;95851.00;;;37.60
15680;BMP180;15488;48.114;11.532;2023-07-09T12:30:26;95838.00;;;37.80
15680;BMP180;15488;48.114;11.532;2023-07-09T12:32:54;95846.00;;;37.90
15680;BMP180;15488;48.114;11.532;2023-07-09T12:35:22;95839.00;;;38.00
15680;BMP180;15488;48.114;11.532;2023-07-09T12:37:51;95844.00;;;38.10
15680;BMP180;15488;48.114;11.532;2023-07-09T12:40:22;95841.00;;;38.30
15680;BMP180;15488;48.114;11.532;2023-07-09T12:42:53;95842.00;;;38.40
15680;BMP180;15488;48.114;11.532;2023-07-09T12:45:21;95838.00;;;38.50
15680;BMP180;15488;48.114;11.532;2023-07-09T12:47:49;95835.00;;;38.60
15680;BMP180;15488;48.114;11.532;2023-07-09T12:50:30;95832.00;;;38.80
15680;BMP180;15488;48.114;11.532;2023-07-09T12:53:02;95823.00;;;38.90
15680;BMP180;15488;48.114;11.532;2023-07-09T12:55:37;95828.00;;;38.80
15680;BMP180;15488;48.114;11.532;2023-07-09T12:58:09;95831.00;;;39.00
15680;BMP180;15488;48.114;11.532;2023-07-09T13:00:38;95821.00;;;39.20
15680;BMP180;15488;48.114;11.532;2023-07-09T13:03:12;95829.00;;;39.30
15680;BMP180;15488;48.114;11.532;2023-07-09T13:05:52;95824.00;;;39.40
15680;BMP180;15488;48.114;11.532;2023-07-09T13:08:19;95824.00;;;39.60
15680;BMP180;15488;48.114;11.532;2023-07-09T13:10:47;95818.00;;;39.70
15680;BMP180;15488;48.114;11.532;2023-07-09T13:13:20;95812.00;;;39.80
15680;BMP180;15488;48.114;11.532;2023-07-09T13:15:51;95818.00;;;40.00
15680;BMP180;15488;48.114;11.532;2023-07-09T13:18:23;95820.00;;;40.20
15680;BMP180;15488;48.114;11.532;2023-07-09T13:20:51;95819.00;;;40.40
15680;BMP180;15488;48.114;11.532;2023-07-09T13:23:20;95812.00;;;40.60
15680;BMP180;15488;48.114;11.532;2023-07-09T13:25:48;95811.00;;;40.80
15680;BMP180;15488;48.114;11.532;2023-07-09T13:28:22;95809.00;;;41.00
15680;BMP180;15488;48.114;11.532;2023-07-09T13:30:53;95812.00;;;41.20
15680;BMP180;15488;48.114;11.532;2023-07-09T13:33:23;95813.00;;;41.40
15680;BMP180;15488;48.114;11.532;2023-07-09T13:35:51;95814.00;;;41.60
15680;BMP180;15488;48.114;11.532;2023-07-09T13:38:22;95816.00;;;41.90
15680;BMP180;15488;48.114;11.532;2023-07-09T13:40:53;95813.00;;;42.10
15680;BMP180;15488;48.114;11.532;2023-07-09T13:43:27;95813.00;;;42.40
15680;BMP180;15488;48.114;11.532;2023-07-09T13:45:55;95808.00;;;42.90
15680;BMP180;15488;48.114;11.532;2023-07-09T13:48:24;95804.00;;;43.30
15680;BMP180;15488;48.114;11.532;2023-07-09T13:50:53;95804.00;;;43.70
15680;BMP180;15488;48.114;11.532;2023-07-09T13:53:23;95800.00;;;44.10
15680;BMP180;15488;48.114;11.532;2023-07-09T13:55:51;95808.00;;;44.60
15680;BMP180;15488;48.114;11.532;2023-07-09T13:58:20;95813.00;;;45.20
15680;BMP180;15488;48.114;11.532;2023-07-09T14:00:54;95812.00;;;45.80
15680;BMP180;15488;48.114;11.532;2023-07-09T14:03:24;95805.00;;;46.40
15680;BMP180;15488;48.114;11.532;2023-07-09T14:05:52;95799.00;;;46.80
15680;BMP180;15488;48.114;11.532;2023-07-09T14:08:20;95804.00;;;46.80
15680;BMP180;15488;48.114;11.532;2023-07-09T14:10:48;95800.00;;;46.70